Time;durP1;ratioP1;P1;durP2;ratioP2;P2;SDS_P1;SDS_P2;PMS_P1;PMS_P2;Temp;Humidity;BMP_temperature;BMP_pressure;BME280_temperature;BME280_humidity;BME280_pressure;Samples;Min_cycle;Max_cycle;Signal;HPM_P1;HPM_P2
2022/04/23 04:00:57;;;;;;;9.45;7.90;;;6.40;99.90;;;;;;5714545;23;20266;-68
2022/04/23 04:03:24;;;;;;;9.68;8.73;;;6.40;99.90;;;;;;4971694;28;20209;-68
2022/04/23 04:05:51;;;;;;;14.13;8.65;;;6.30;99.90;;;;;;4971351;28;20303;-69
2022/04/23 04:08:17;;;;;;;10.20;8.20;;;5.00;99.90;;;;;;4971430;28;20229;-68
2022/04/23 04:10:44;;;;;;;13.77;9.35;;;6.30;99.90;;;;;;4970588;28;20307;-69
2022/04/23 04:13:10;;;;;;;13.55;7.90;;;6.30;99.90;;;;;;4971673;28;20208;-69
2022/04/23 04:15:38;;;;;;;10.75;8.95;;;6.30;99.90;;;;;;4971129;28;20212;-68
2022/04/23 04:18:07;;;;;;;8.65;7.72;;;6.30;99.90;;;;;;4965307;28;20202;-68
2022/04/23 04:20:34;;;;;;;13.55;9.85;;;6.30;99.90;;;;;;4969841;28;20411;-68
2022/04/23 04:23:01;;;;;;;11.43;9.27;;;6.30;99.90;;;;;;4971516;28;20212;-68
2022/04/23 04:25:28;;;;;;;13.68;8.90;;;6.30;99.90;;;;;;4971135;28;20216;-68
2022/04/23 04:27:55;;;;;;;9.65;8.65;;;6.20;99.90;;;;;;4971473;28;20236;-68
2022/04/23 04:30:21;;;;;;;15.70;9.88;;;6.30;99.90;;;;;;4970259;28;20561;-68
2022/04/23 04:32:48;;;;;;;15.52;9.95;;;6.30;99.90;;;;;;4971364;28;20208;-68
2022/04/23 04:35:16;;;;;;;12.18;9.55;;;6.30;99.90;;;;;;4971339;28;20835;-68
2022/04/23 04:37:43;;;;;;;11.43;9.60;;;6.30;99.90;;;;;;4971178;28;20692;-68
2022/04/23 04:40:10;;;;;;;11.57;9.70;;;6.30;99.90;;;;;;4970591;28;20209;-69
2022/04/23 04:42:37;;;;;;;18.80;11.75;;;6.40;99.90;;;;;;4971018;28;20685;-69
2022/04/23 04:45:05;;;;;;;16.98;12.27;;;6.60;99.90;;;;;;4970262;28;20216;-69
2022/04/23 04:47:31;;;;;;;13.50;11.25;;;7.10;99.90;;;;;;4970812;28;20716;-69
2022/04/23 04:49:58;;;;;;;12.02;10.68;;;7.80;99.90;;;;;;4970242;28;20212;-68
2022/04/23 04:52:26;;;;;;;10.55;9.60;;;7.80;99.90;;;;;;4970708;28;20236;-68
2022/04/23 04:54:53;;;;;;;13.27;9.50;;;8.20;99.90;;;;;;4970842;28;20544;-68
2022/04/23 04:57:19;;;;;;;10.55;9.43;;;8.50;99.90;;;;;;4970909;28;20247;-68
2022/04/23 04:59:46;;;;;;;9.60;8.77;;;8.70;99.90;;;;;;4969699;28;20200;-68
2022/04/23 05:02:13;;;;;;;9.68;8.30;;;8.70;99.90;;;;;;4970750;28;20327;-68
2022/04/23 05:04:39;;;;;;;10.23;9.13;;;8.60;99.90;;;;;;4970777;28;20219;-68
2022/04/23 05:07:06;;;;;;;10.63;9.52;;;8.50;99.90;;;;;;4970625;28;20220;-68
2022/04/23 05:09:34;;;;;;;10.55;9.50;;;8.40;99.90;;;;;;4970287;28;20212;-69
2022/04/23 05:12:00;;;;;;;11.25;10.15;;;8.20;99.90;;;;;;4970666;28;20255;-69
2022/04/23 05:14:27;;;;;;;10.75;9.52;;;8.10;99.90;;;;;;4970656;28;20696;-69
2022/04/23 05:16:54;;;;;;;11.50;9.40;;;8.20;99.90;;;;;;4971448;28;20205;-69
2022/04/23 05:19:21;;;;;;;11.32;9.60;;;8.30;99.90;;;;;;4974798;28;20271;-69
2022/04/23 05:21:48;;;;;;;10.25;9.25;;;8.20;99.90;;;;;;4973623;28;20744;-69
2022/04/23 05:24:14;;;;;;;10.23;9.30;;;8.30;99.90;;;;;;4974668;28;20204;-68
2022/04/23 05:26:42;;;;;;;10.13;9.13;;;8.20;99.90;;;;;;4974173;28;20275;-68
2022/04/23 05:29:09;;;;;;;11.32;10.32;;;8.20;99.90;;;;;;4974573;28;20212;-68
2022/04/23 05:31:38;;;;;;;10.38;9.57;;;8.20;99.90;;;;;;4973059;28;20232;-70
2022/04/23 05:34:05;;;;;;;11.02;9.68;;;8.20;99.90;;;;;;4974880;28;20287;-69
2022/04/23 05:36:32;;;;;;;12.00;9.85;;;8.30;99.90;;;;;;4974791;28;20247;-70
2022/04/23 05:38:59;;;;;;;12.18;10.27;;;8.30;99.90;;;;;;4974758;28;20235;-70
2022/04/23 05:41:25;;;;;;;10.52;9.43;;;8.40;99.90;;;;;;4974293;28;20294;-70
2022/04/23 05:43:53;;;;;;;13.35;10.27;;;8.50;99.90;;;;;;4974847;28;20594;-70
2022/04/23 05:46:20;;;;;;;10.27;9.27;;;8.60;99.90;;;;;;4974142;28;20681;-70
2022/04/23 05:48:47;;;;;;;10.73;9.65;;;8.50;99.90;;;;;;4974420;28;20232;-70
2022/04/23 05:51:13;;;;;;;10.13;8.80;;;8.50;99.90;;;;;;4973574;28;20286;-70
2022/04/23 05:53:41;;;;;;;10.68;9.45;;;8.50;99.90;;;;;;4974360;28;20220;-70
2022/04/23 05:56:08;;;;;;;12.40;10.00;;;8.60;99.90;;;;;;4974493;28;20209;-70
2022/04/23 05:58:36;;;;;;;9.52;8.63;;;8.60;99.90;;;;;;4973911;28;20597;-70
2022/04/23 06:01:04;;;;;;;10.85;9.75;;;8.70;99.90;;;;;;4972517;28;20327;-70
2022/04/23 06:03:31;;;;;;;11.80;9.85;;;8.70;99.90;;;;;;4973614;28;20263;-70
2022/04/23 06:05:58;;;;;;;12.75;9.85;;;8.80;99.90;;;;;;4974039;28;20256;-70
2022/04/23 06:08:25;;;;;;;11.27;10.38;;;9.20;99.90;;;;;;4973863;28;20619;-70
2022/04/23 06:10:51;;;;;;;10.70;9.70;;;9.80;99.90;;;;;;4972930;28;20647;-70
2022/04/23 06:13:18;;;;;;;9.70;8.90;;;10.60;99.90;;;;;;4973735;28;20616;-70
2022/04/23 06:15:45;;;;;;;10.87;10.00;;;11.50;99.90;;;;;;4972714;28;20463;-68
2022/04/23 06:18:13;;;;;;;10.93;10.10;;;12.30;99.90;;;;;;4974033;28;20464;-68
2022/04/23 06:20:39;;;;;;;9.77;9.03;;;12.90;99.90;;;;;;4972914;28;20488;-68
2022/04/23 06:23:06;;;;;;;10.03;9.30;;;13.40;99.90;;;;;;4973450;28;20464;-69
2022/04/23 06:25:33;;;;;;;10.13;9.33;;;13.90;99.90;;;;;;4973555;28;20474;-68
2022/04/23 06:28:00;;;;;;;9.03;8.33;;;14.30;99.90;;;;;;4974082;28;20518;-68
2022/04/23 06:30:27;;;;;;;9.23;8.63;;;14.60;99.90;;;;;;4971918;28;20464;-68
2022/04/23 06:32:53;;;;;;;9.90;8.90;;;15.00;99.90;;;;;;4973768;28;20470;-68
2022/04/23 06:35:22;;;;;;;10.10;9.30;;;15.20;99.90;;;;;;4971689;28;21036;-68
2022/04/23 06:37:49;;;;;;;9.27;8.67;;;15.30;99.90;;;;;;4973565;28;20460;-68
2022/04/23 06:40:16;;;;;;;9.27;8.57;;;15.60;99.90;;;;;;4972596;28;20545;-68
2022/04/23 06:42:43;;;;;;;9.53;8.83;;;15.70;99.90;;;;;;4973143;28;20464;-68
2022/04/23 06:45:10;;;;;;;9.73;9.13;;;16.00;99.90;;;;;;4972225;28;20554;-68
2022/04/23 06:47:37;;;;;;;10.73;9.87;;;16.30;99.90;;;;;;4972935;28;20521;-68
2022/04/23 06:50:06;;;;;;;9.00;8.40;;;16.10;99.90;;;;;;4972456;28;20464;-68
2022/04/23 06:52:34;;;;;;;8.90;8.30;;;16.20;99.90;;;;;;4972961;28;20484;-68
2022/04/23 06:55:01;;;;;;;8.90;8.30;;;16.20;99.90;;;;;;4973191;28;20467;-68
2022/04/23 06:57:27;;;;;;;9.13;8.63;;;16.20;99.90;;;;;;4972704;28;20464;-68
2022/04/23 06:59:54;;;;;;;9.93;9.23;;;16.20;99.90;;;;;;4971930;28;20479;-68
2022/04/23 07:02:21;;;;;;;9.63;8.83;;;16.60;99.90;;;;;;4972700;28;20869;-68
2022/04/23 07:04:48;;;;;;;10.13;9.33;;;16.80;99.90;;;;;;4972769;28;20586;-68
2022/04/23 07:07:15;;;;;;;9.30;8.70;;;17.10;99.90;;;;;;4967710;28;20470;-68
2022/04/23 07:09:43;;;;;;;9.40;8.80;;;16.80;99.90;;;;;;4972021;28;20960;-69
2022/04/23 07:12:11;;;;;;;9.80;9.10;;;15.70;99.90;;;;;;4972597;28;20972;-68
2022/04/23 07:14:39;;;;;;;9.13;8.47;;;14.70;99.90;;;;;;4972205;28;20464;-68
2022/04/23 07:17:05;;;;;;;8.80;8.20;;;14.00;99.90;;;;;;4972679;28;20503;-68
2022/04/23 07:19:33;;;;;;;8.67;8.10;;;14.20;99.90;;;;;;4972110;28;20467;-68
2022/04/23 07:21:59;;;;;;;8.10;7.60;;;14.90;99.90;;;;;;4972562;28;20484;-68
2022/04/23 07:24:26;;;;;;;7.40;6.90;;;15.70;99.90;;;;;;4972972;28;20841;-68
2022/04/23 07:26:54;;;;;;;7.40;6.90;;;16.00;99.90;;;;;;4972192;28;20467;-68
2022/04/23 07:29:21;;;;;;;6.33;6.03;;;16.20;99.90;;;;;;4972508;28;20495;-68
2022/04/23 07:31:47;;;;;;;6.87;6.47;;;16.30;99.90;;;;;;4970988;28;20510;-68
2022/04/23 07:39:44;;;;;;;6.87;6.23;;;16.40;99.30;;;;;;4971159;28;20693;-68
2022/04/23 07:42:12;;;;;;;6.30;6.00;;;16.20;99.20;;;;;;4972382;28;20615;-68
2022/04/23 07:44:39;;;;;;;5.53;5.23;;;15.60;99.30;;;;;;4971453;28;20468;-68
2022/04/23 07:47:06;;;;;;;6.70;6.30;;;15.10;99.30;;;;;;4972170;28;20468;-68
2022/04/23 07:49:33;;;;;;;6.47;5.97;;;14.70;99.90;;;;;;4971670;28;20575;-68
2022/04/23 07:51:59;;;;;;;6.10;5.70;;;14.30;99.90;;;;;;4972575;28;20487;-69
2022/04/23 07:54:26;;;;;;;6.50;5.97;;;14.10;99.90;;;;;;4973296;28;20522;-69
2022/04/23 07:56:53;;;;;;;6.73;6.33;;;13.70;99.90;;;;;;4969881;28;20575;-69
2022/04/23 07:59:21;;;;;;;7.07;6.20;;;13.50;99.90;;;;;;5011673;23;20510;-70
2022/04/23 08:01:49;;;;;;;6.97;6.37;;;13.30;99.90;;;;;;4991153;28;20463;-69
2022/04/23 08:04:15;;;;;;;7.00;5.80;;;13.30;99.90;;;;;;4991216;28;20546;-69
2022/04/23 08:06:42;;;;;;;5.30;4.00;;;13.30;99.90;;;;;;4991590;28;20517;-69
2022/04/23 08:09:09;;;;;;;6.67;6.07;;;13.30;99.90;;;;;;4991546;28;20521;-69
2022/04/23 08:11:36;;;;;;;7.10;6.40;;;13.40;99.90;;;;;;4990654;28;20474;-69
2022/04/23 08:14:03;;;;;;;7.10;6.60;;;13.40;99.90;;;;;;4991596;28;20536;-70
2022/04/23 08:16:31;;;;;;;5.23;4.93;;;13.40;99.90;;;;;;4991293;28;20677;-71
2022/04/23 08:18:59;;;;;;;7.83;7.23;;;13.50;99.90;;;;;;4991102;28;20700;-71
2022/04/23 08:21:25;;;;;;;6.23;5.73;;;13.60;99.90;;;;;;4990882;28;20494;-71
2022/04/23 08:23:52;;;;;;;5.30;4.90;;;13.60;99.90;;;;;;4991337;28;20467;-71
2022/04/23 08:26:19;;;;;;;6.10;5.80;;;13.70;99.90;;;;;;4991164;28;20475;-71
2022/04/23 08:31:31;;;;;;;6.67;5.87;;;13.90;99.90;;;;;;4990042;28;20561;-71
2022/04/23 08:34:01;;;;;;;6.33;5.93;;;13.80;99.90;;;;;;4990215;28;20601;-71
2022/04/23 08:36:35;;;;;;;4.90;4.60;;;13.90;99.90;;;;;;4990656;28;20493;-71
2022/04/23 08:39:02;;;;;;;5.97;5.40;;;13.80;99.90;;;;;;4991120;28;20533;-71
2022/04/23 08:41:29;;;;;;;4.30;4.00;;;13.90;99.90;;;;;;4990349;28;20582;-71
2022/04/23 08:44:05;;;;;;;7.40;5.60;;;14.10;99.90;;;;;;4990332;28;20470;-71
2022/04/23 08:46:35;;;;;;;5.57;5.20;;;14.20;99.90;;;;;;4990063;28;20466;-71
2022/04/23 08:49:09;;;;;;;5.20;4.87;;;14.30;99.90;;;;;;4990817;28;20486;-71
2022/04/23 08:51:38;;;;;;;6.43;6.00;;;14.30;99.90;;;;;;4989394;28;20816;-71
2022/04/23 08:54:07;;;;;;;6.40;6.00;;;14.40;99.90;;;;;;4990545;28;20477;-71
2022/04/23 08:56:36;;;;;;;5.23;4.93;;;14.40;99.90;;;;;;4990654;28;20463;-71
2022/04/23 08:59:03;;;;;;;4.07;3.80;;;14.40;99.70;;;;;;4990329;28;20577;-71
2022/04/23 09:01:32;;;;;;;5.57;5.17;;;14.50;99.50;;;;;;4989429;28;20462;-71
2022/04/23 09:04:01;;;;;;;6.57;5.97;;;14.50;99.90;;;;;;4990798;28;20470;-71
2022/04/23 09:06:34;;;;;;;4.90;4.67;;;14.40;99.90;;;;;;4990174;28;20467;-71
2022/04/23 09:09:14;;;;;;;5.70;5.30;;;14.50;99.90;;;;;;4990772;28;20565;-71
2022/04/23 09:11:43;;;;;;;4.53;4.33;;;14.50;99.60;;;;;;4989890;28;20569;-71
2022/04/23 09:14:22;;;;;;;5.73;5.43;;;14.60;99.90;;;;;;4991025;28;20513;-71
2022/04/23 09:25:07;;;;;;;5.80;5.50;;;14.90;99.20;;;;;;4981783;28;20441;-70
2022/04/23 09:27:34;;;;;;;5.80;5.30;;;14.90;99.60;;;;;;4990129;28;20479;-72
2022/04/23 09:30:02;;;;;;;5.30;5.00;;;15.00;99.20;;;;;;4989304;28;20506;-72
2022/04/23 09:32:29;;;;;;;6.03;5.30;;;15.10;98.40;;;;;;4990294;28;20470;-71
2022/04/23 09:35:09;;;;;;;4.70;4.40;;;15.20;98.80;;;;;;4990208;28;20467;-71
2022/04/23 09:40:22;;;;;;;6.00;5.60;;;15.30;98.30;;;;;;4989876;28;20482;-71
2022/04/23 09:42:59;;;;;;;5.83;5.00;;;15.40;98.00;;;;;;4990171;28;20506;-71
2022/04/23 09:45:29;;;;;;;5.17;4.80;;;15.40;97.00;;;;;;4989479;28;20482;-71
2022/04/23 09:47:56;;;;;;;3.63;3.53;;;15.40;95.70;;;;;;4989675;28;20978;-71
2022/04/23 09:50:24;;;;;;;6.00;5.50;;;15.50;96.30;;;;;;4990024;28;20467;-69
2022/04/23 09:52:51;;;;;;;6.30;5.80;;;15.60;96.00;;;;;;4990079;28;20470;-70
2022/04/23 09:55:20;;;;;;;5.07;4.87;;;15.70;96.00;;;;;;4990201;28;20458;-69
2022/04/23 09:57:48;;;;;;;6.07;5.67;;;15.70;96.50;;;;;;4990104;28;20487;-69
2022/04/23 10:00:16;;;;;;;4.37;4.17;;;15.80;95.90;;;;;;4989043;28;20470;-71
2022/04/23 10:02:46;;;;;;;4.53;4.33;;;15.80;95.00;;;;;;4990504;28;20470;-70
2022/04/23 10:05:16;;;;;;;5.50;5.30;;;15.90;94.80;;;;;;4993345;28;20557;-70
2022/04/23 10:07:49;;;;;;;5.77;5.10;;;16.00;94.80;;;;;;4993500;28;20482;-70
2022/04/23 10:10:17;;;;;;;4.73;4.43;;;16.20;94.00;;;;;;4993547;28;20582;-70
2022/04/23 10:12:45;;;;;;;4.60;4.30;;;16.30;94.10;;;;;;4993415;28;20467;-69
2022/04/23 10:15:14;;;;;;;5.67;5.27;;;16.30;93.40;;;;;;4993317;28;20502;-69
2022/04/23 10:17:42;;;;;;;5.10;4.83;;;16.40;93.10;;;;;;4993298;28;20573;-69
2022/04/23 10:20:12;;;;;;;5.30;5.00;;;16.30;93.00;;;;;;4993063;28;20498;-70
2022/04/23 10:22:52;;;;;;;6.20;5.77;;;16.30;93.10;;;;;;4993247;28;20469;-69
2022/04/23 10:25:28;;;;;;;6.03;5.47;;;16.30;92.70;;;;;;4993428;28;20682;-70
2022/04/23 10:27:58;;;;;;;5.40;5.07;;;16.30;92.80;;;;;;4992873;28;20478;-70
2022/04/23 10:30:27;;;;;;;4.97;4.67;;;16.40;93.00;;;;;;4991601;28;20939;-70
2022/04/23 10:32:53;;;;;;;6.50;6.07;;;16.40;92.90;;;;;;4993322;28;20553;-70
2022/04/23 10:35:33;;;;;;;5.20;4.90;;;16.50;92.70;;;;;;4990423;28;20467;-70
2022/04/23 10:38:19;;;;;;;5.73;5.53;;;16.60;92.90;;;;;;4992799;28;20885;-71
2022/04/23 10:40:47;;;;;;;5.27;4.97;;;16.60;93.40;;;;;;4992336;28;20561;-70
2022/04/23 10:43:19;;;;;;;6.40;6.03;;;16.60;93.30;;;;;;4992576;28;20554;-70
2022/04/23 10:45:48;;;;;;;6.10;5.70;;;16.40;92.50;;;;;;4993053;28;20463;-71
2022/04/23 10:48:30;;;;;;;5.30;5.00;;;16.20;92.50;;;;;;4993205;28;20483;-71
2022/04/23 10:51:15;;;;;;;5.37;5.07;;;16.00;92.70;;;;;;4992392;28;20643;-71
2022/04/23 10:53:55;;;;;;;5.20;4.80;;;16.00;93.10;;;;;;4993421;28;20875;-71
2022/04/23 10:56:23;;;;;;;6.13;5.63;;;16.10;92.90;;;;;;4994155;28;20534;-71
2022/04/23 10:58:52;;;;;;;5.00;4.70;;;16.20;92.80;;;;;;4992749;28;20498;-70
2022/04/23 11:01:21;;;;;;;6.73;6.30;;;16.40;93.00;;;;;;4991305;28;21011;-70
2022/04/23 11:04:06;;;;;;;6.50;5.90;;;16.50;93.00;;;;;;4993905;28;20490;-71
2022/04/23 11:12:33;;;;;;;4.70;4.50;;;16.90;91.20;;;;;;4992330;28;20526;-71
2022/04/23 11:15:01;;;;;;;7.60;5.73;;;17.10;90.40;;;;;;4990617;28;20557;-70
2022/04/23 11:17:49;;;;;;;5.23;5.03;;;17.20;90.10;;;;;;4992500;28;20550;-70
2022/04/23 11:20:27;;;;;;;5.73;5.43;;;17.10;88.80;;;;;;4991767;28;20462;-71
2022/04/23 11:22:54;;;;;;;6.70;6.30;;;17.10;90.30;;;;;;4988105;28;20885;-70
2022/04/23 11:25:23;;;;;;;5.30;4.90;;;17.20;90.70;;;;;;4989399;28;20478;-71
2022/04/23 11:27:50;;;;;;;4.80;4.50;;;17.40;90.10;;;;;;4992161;28;20586;-70
2022/04/23 11:30:28;;;;;;;4.93;4.73;;;17.40;89.50;;;;;;4990908;28;20836;-70
2022/04/23 11:32:55;;;;;;;4.87;4.57;;;17.50;89.90;;;;;;4991829;28;20550;-70
2022/04/23 11:35:29;;;;;;;4.67;4.37;;;17.50;89.30;;;;;;4991932;28;20811;-70
2022/04/23 11:37:56;;;;;;;5.20;4.80;;;17.50;89.90;;;;;;4991935;28;20561;-71
2022/04/23 11:40:28;;;;;;;5.13;4.93;;;17.40;88.70;;;;;;4991185;28;20521;-71
2022/04/23 11:42:55;;;;;;;4.50;4.30;;;17.00;88.10;;;;;;4991547;28;20874;-71
2022/04/23 11:45:23;;;;;;;5.17;4.87;;;16.90;89.70;;;;;;4991462;28;20471;-71
2022/04/23 11:47:51;;;;;;;4.77;4.50;;;16.90;89.30;;;;;;4991627;28;20487;-71
2022/04/23 11:50:21;;;;;;;4.50;4.30;;;16.90;89.50;;;;;;4990813;28;20579;-70
2022/04/23 11:53:03;;;;;;;4.13;4.03;;;16.90;88.10;;;;;;4991412;28;20508;-71
2022/04/23 11:55:31;;;;;;;3.73;3.60;;;17.10;88.60;;;;;;4991265;28;20467;-71
2022/04/23 11:57:59;;;;;;;4.67;4.37;;;17.20;88.70;;;;;;4980838;28;20612;-71
2022/04/23 12:00:27;;;;;;;4.67;4.47;;;17.40;86.70;;;;;;4990365;28;20463;-70
2022/04/23 12:02:54;;;;;;;5.57;5.23;;;17.50;86.90;;;;;;4991339;28;20474;-70
2022/04/23 12:05:28;;;;;;;5.50;5.20;;;17.60;86.80;;;;;;4990934;28;20463;-70
2022/04/23 12:07:55;;;;;;;5.03;4.80;;;17.60;86.40;;;;;;4990853;28;20522;-70
2022/04/23 12:10:25;;;;;;;5.03;4.73;;;17.50;86.20;;;;;;4990387;28;20987;-70
2022/04/23 12:12:53;;;;;;;5.80;5.40;;;17.70;87.10;;;;;;4991220;28;20529;-70
2022/04/23 12:15:23;;;;;;;5.63;5.30;;;17.60;86.80;;;;;;4990879;28;20463;-71
2022/04/23 12:17:51;;;;;;;5.43;5.13;;;17.40;87.30;;;;;;4999507;28;20933;-71
2022/04/23 12:20:20;;;;;;;5.73;5.33;;;17.30;88.00;;;;;;4991022;28;20915;-70
2022/04/23 12:23:00;;;;;;;4.83;4.63;;;17.20;88.50;;;;;;4991149;28;20463;-70
2022/04/23 12:25:28;;;;;;;5.53;5.27;;;17.30;89.90;;;;;;4990873;28;20495;-70
2022/04/23 12:27:58;;;;;;;6.33;6.03;;;17.30;90.00;;;;;;4990731;28;20883;-70
2022/04/23 12:41:59;;;;;;;4.33;4.13;;;17.40;87.90;;;;;;4990124;28;20509;-70
2022/04/23 12:44:34;;;;;;;5.20;4.90;;;17.50;87.40;;;;;;4988381;28;20466;-70
2022/04/23 12:47:02;;;;;;;5.60;5.20;;;17.60;87.30;;;;;;4990790;28;20501;-70
2022/04/23 12:49:56;;;;;;;5.40;5.00;;;17.60;87.00;;;;;;4989970;28;20908;-70
2022/04/23 12:52:25;;;;;;;5.30;4.93;;;17.40;87.20;;;;;;4976441;28;20467;-70
2022/04/23 12:55:13;;;;;;;5.10;4.80;;;17.30;86.10;;;;;;4990051;28;20579;-70
2022/04/23 12:57:39;;;;;;;5.13;4.93;;;17.30;86.50;;;;;;4990142;28;20568;-70
2022/04/23 13:00:09;;;;;;;5.10;4.80;;;17.30;86.70;;;;;;4988955;28;20463;-69
2022/04/23 13:02:38;;;;;;;5.13;4.83;;;17.20;86.70;;;;;;4989885;28;20463;-70
2022/04/23 13:05:06;;;;;;;5.77;5.47;;;17.10;86.10;;;;;;4990117;28;20467;-70
2022/04/23 13:10:17;;;;;;;5.00;4.70;;;17.00;87.10;;;;;;4989483;28;20548;-70
2022/04/23 13:12:44;;;;;;;5.30;5.10;;;16.90;86.60;;;;;;4990015;28;20832;-71
2022/04/23 13:15:13;;;;;;;5.30;5.10;;;17.10;87.70;;;;;;4989705;28;20459;-71
2022/04/23 13:17:40;;;;;;;6.13;5.60;;;17.30;87.00;;;;;;4990518;28;20489;-71
2022/04/23 13:20:08;;;;;;;5.43;5.13;;;17.40;85.60;;;;;;4989826;28;20834;-70
2022/04/23 13:22:35;;;;;;;5.20;5.00;;;17.50;85.10;;;;;;4987462;28;20811;-71
2022/04/23 13:25:02;;;;;;;6.47;6.07;;;17.50;87.00;;;;;;4980095;28;20459;-71
2022/04/23 13:27:29;;;;;;;5.10;4.90;;;17.50;85.40;;;;;;4990207;28;20466;-71
2022/04/23 13:29:55;;;;;;;5.87;5.60;;;17.50;85.20;;;;;;4989264;28;21015;-71
2022/04/23 13:32:24;;;;;;;5.70;5.30;;;17.70;84.40;;;;;;4990005;28;20467;-70
2022/04/23 13:34:51;;;;;;;5.23;4.93;;;17.60;84.50;;;;;;4989669;28;20969;-70
2022/04/23 13:37:18;;;;;;;5.70;5.30;;;17.70;85.40;;;;;;4989847;28;20956;-71
2022/04/23 13:39:44;;;;;;;5.40;5.10;;;17.90;85.00;;;;;;4993014;28;20903;-70
2022/04/23 13:42:11;;;;;;;6.23;5.73;;;17.90;84.60;;;;;;4993879;28;20463;-70
2022/04/23 13:44:38;;;;;;;5.03;4.57;;;17.90;84.60;;;;;;4993134;28;20474;-71
2022/04/23 13:47:06;;;;;;;5.40;5.10;;;18.00;85.00;;;;;;4993616;28;20688;-71
2022/04/23 13:49:34;;;;;;;5.30;4.90;;;18.00;85.10;;;;;;4993379;28;20490;-71
2022/04/23 13:52:01;;;;;;;6.50;6.10;;;18.00;83.20;;;;;;4993346;28;20839;-71
2022/04/23 13:54:28;;;;;;;6.30;5.90;;;17.90;83.90;;;;;;4993494;28;20470;-71
2022/04/23 13:56:54;;;;;;;5.47;5.23;;;17.90;84.40;;;;;;4991134;28;20462;-71
2022/04/23 13:59:21;;;;;;;6.10;5.40;;;17.70;84.30;;;;;;4993339;28;21050;-71
2022/04/23 14:10:12;;;;;;;5.27;4.93;;;17.60;83.50;;;;;;4951460;29;20586;-71
2022/04/23 14:12:39;;;;;;;6.30;5.77;;;17.60;83.30;;;;;;4952099;29;20473;-71
2022/04/23 14:15:07;;;;;;;5.70;5.30;;;17.70;84.00;;;;;;4969298;28;20467;-71
2022/04/23 14:17:34;;;;;;;5.77;5.40;;;17.80;83.60;;;;;;4993426;28;20553;-71
2022/04/23 14:20:01;;;;;;;8.80;5.67;;;17.60;83.30;;;;;;4993480;28;20462;-71
2022/04/23 14:22:29;;;;;;;5.53;5.20;;;17.50;83.50;;;;;;4993856;28;20814;-71
2022/04/23 14:24:58;;;;;;;6.03;5.63;;;17.50;84.20;;;;;;4993491;28;20462;-71
2022/04/23 14:27:24;;;;;;;5.13;4.83;;;17.50;83.90;;;;;;4992904;28;20524;-71
2022/04/23 14:29:51;;;;;;;6.17;5.87;;;17.60;83.90;;;;;;4991931;28;20494;-71
2022/04/23 14:32:18;;;;;;;5.73;5.33;;;17.80;82.80;;;;;;4993034;28;20947;-71
2022/04/23 14:34:45;;;;;;;6.30;5.80;;;17.90;81.70;;;;;;4992698;28;20467;-72
2022/04/23 14:37:11;;;;;;;5.53;5.23;;;17.90;82.60;;;;;;4992719;28;20462;-71
2022/04/23 14:39:39;;;;;;;4.67;4.47;;;18.00;83.20;;;;;;4991853;28;20487;-71
2022/04/23 14:42:07;;;;;;;5.70;5.40;;;17.80;83.50;;;;;;4992414;28;20477;-71
2022/04/23 14:44:34;;;;;;;6.77;6.37;;;17.90;83.80;;;;;;4991898;28;20473;-71
2022/04/23 14:47:03;;;;;;;6.77;6.27;;;17.80;84.20;;;;;;4981651;28;20490;-71
2022/04/23 14:49:30;;;;;;;6.33;6.00;;;17.70;84.60;;;;;;4992097;28;20482;-72
2022/04/23 14:54:42;;;;;;;5.97;5.57;;;17.70;84.60;;;;;;4994901;28;20482;-71
2022/04/23 14:57:09;;;;;;;6.47;6.07;;;17.70;84.80;;;;;;4994041;28;20459;-72
2022/04/23 14:59:37;;;;;;;6.57;6.13;;;17.80;84.90;;;;;;4992732;28;20498;-71
2022/04/23 15:02:05;;;;;;;6.23;5.90;;;17.60;83.20;;;;;;4993360;28;20544;-71
2022/04/23 15:04:32;;;;;;;5.93;5.43;;;17.50;83.80;;;;;;4993539;28;20463;-71
2022/04/23 15:06:59;;;;;;;5.80;5.50;;;17.50;82.90;;;;;;4993180;28;20959;-71
2022/04/23 15:09:25;;;;;;;6.40;6.10;;;17.60;82.40;;;;;;4993267;28;20491;-71
2022/04/23 15:11:53;;;;;;;6.67;6.20;;;17.70;83.10;;;;;;4992763;28;20541;-71
2022/04/23 15:14:20;;;;;;;6.60;6.20;;;17.80;83.60;;;;;;4992812;28;20525;-71
2022/04/23 15:16:48;;;;;;;5.20;4.90;;;17.90;83.50;;;;;;4992040;28;20466;-71
2022/04/23 15:19:14;;;;;;;6.87;6.37;;;18.00;84.10;;;;;;4993590;28;20936;-71
2022/04/23 15:21:41;;;;;;;6.43;6.03;;;17.90;82.80;;;;;;4995689;28;20835;-71
2022/04/23 15:24:08;;;;;;;6.60;6.20;;;17.80;83.60;;;;;;4981442;28;20462;-71
2022/04/23 15:26:34;;;;;;;6.57;6.07;;;17.70;83.80;;;;;;4992210;28;20474;-71
2022/04/23 15:29:02;;;;;;;8.97;6.90;;;17.70;84.40;;;;;;4992209;28;20494;-72
2022/04/23 15:31:29;;;;;;;6.13;5.73;;;17.80;85.60;;;;;;4991336;28;20486;-71
2022/04/23 15:33:56;;;;;;;7.03;6.63;;;17.80;84.70;;;;;;4992139;28;20514;-72
2022/04/23 15:36:23;;;;;;;5.30;4.90;;;17.70;85.30;;;;;;4992043;28;20467;-72
2022/04/23 15:38:49;;;;;;;7.10;6.60;;;17.50;84.50;;;;;;4991919;28;20491;-72
2022/04/23 15:41:16;;;;;;;6.80;6.30;;;17.30;84.80;;;;;;4991287;28;20888;-71
2022/04/23 15:43:43;;;;;;;6.50;6.10;;;17.30;86.50;;;;;;4991957;28;20613;-71
2022/04/23 15:46:11;;;;;;;6.70;6.30;;;17.30;85.70;;;;;;4991175;28;20462;-71
2022/04/23 15:48:39;;;;;;;7.83;7.33;;;17.20;85.50;;;;;;4991231;28;20482;-71
2022/04/23 15:51:06;;;;;;;6.50;6.00;;;17.20;85.50;;;;;;4991313;28;20519;-71
2022/04/23 15:53:33;;;;;;;7.30;6.80;;;17.10;85.70;;;;;;4991537;28;20467;-72
2022/04/23 15:56:00;;;;;;;6.43;6.03;;;17.20;85.70;;;;;;4991692;28;20493;-71
2022/04/23 15:58:27;;;;;;;5.57;5.20;;;17.30;85.80;;;;;;4991501;28;20502;-71
2022/04/23 16:00:53;;;;;;;6.33;5.93;;;17.40;87.00;;;;;;4990243;28;20545;-72
2022/04/23 16:03:30;;;;;;;6.87;6.37;;;17.60;87.30;;;;;;4991339;28;20466;-72
2022/04/23 16:05:58;;;;;;;6.40;5.90;;;17.70;84.40;;;;;;4991485;28;20505;-71
2022/04/23 16:08:26;;;;;;;10.60;6.23;;;17.60;85.80;;;;;;4991445;28;20971;-71
2022/04/23 16:10:53;;;;;;;6.50;5.87;;;17.50;85.70;;;;;;4990560;28;20553;-72
2022/04/23 16:13:20;;;;;;;6.50;6.00;;;17.40;86.30;;;;;;4980984;28;20984;-71
2022/04/23 16:15:47;;;;;;;6.00;5.60;;;17.30;86.60;;;;;;4990137;28;20882;-71
2022/04/23 16:18:14;;;;;;;7.30;6.80;;;17.30;85.40;;;;;;4991504;28;20522;-71
2022/04/23 16:20:42;;;;;;;7.33;6.83;;;17.30;85.30;;;;;;4990666;28;20474;-71
2022/04/23 16:23:10;;;;;;;7.37;6.90;;;17.20;85.90;;;;;;4991110;28;20968;-71
2022/04/23 16:25:37;;;;;;;6.83;6.33;;;17.20;86.20;;;;;;4990886;28;20937;-71
2022/04/23 16:28:06;;;;;;;6.03;5.60;;;17.10;86.80;;;;;;4990860;28;20487;-71
2022/04/23 16:30:33;;;;;;;6.30;5.90;;;17.10;88.40;;;;;;4989507;28;20512;-71
2022/04/23 16:33:00;;;;;;;5.83;5.43;;;17.10;87.50;;;;;;4991176;28;20466;-71
2022/04/23 16:35:27;;;;;;;6.50;6.10;;;17.10;88.20;;;;;;4990937;28;20459;-71
2022/04/23 16:48:52;;;;;;;5.47;5.10;;;16.90;87.30;;;;;;4977935;28;20493;-71
2022/04/23 16:51:19;;;;;;;6.23;5.83;;;17.00;88.30;;;;;;4989617;28;20489;-71
2022/04/23 16:53:47;;;;;;;4.73;4.53;;;17.00;88.20;;;;;;4990723;28;20820;-71
2022/04/23 16:56:14;;;;;;;5.57;5.27;;;17.00;88.60;;;;;;4990807;28;20779;-71
2022/04/23 16:58:40;;;;;;;5.33;4.93;;;16.90;89.40;;;;;;4990403;28;20855;-71
2022/04/23 17:01:07;;;;;;;5.53;5.13;;;16.80;90.00;;;;;;4989626;28;20467;-71
2022/04/23 17:03:34;;;;;;;4.97;4.77;;;16.60;90.20;;;;;;4990447;28;20754;-71
2022/04/23 17:06:00;;;;;;;5.67;5.37;;;16.60;90.50;;;;;;4990380;28;20549;-70
2022/04/23 17:08:27;;;;;;;5.57;5.27;;;16.50;90.30;;;;;;4990141;28;20825;-71
2022/04/23 17:10:55;;;;;;;6.03;5.60;;;16.40;90.70;;;;;;4989086;28;21011;-71
2022/04/23 17:13:22;;;;;;;5.80;5.47;;;16.40;91.00;;;;;;4989373;28;20883;-70
2022/04/23 17:15:49;;;;;;;5.00;4.70;;;16.30;91.30;;;;;;4989253;28;20475;-71
2022/04/23 17:18:15;;;;;;;6.10;5.60;;;16.20;91.70;;;;;;4990150;28;20486;-71
2022/04/23 17:20:42;;;;;;;5.00;4.70;;;16.20;91.90;;;;;;4989470;28;20943;-71
2022/04/23 17:23:09;;;;;;;5.70;5.30;;;16.10;92.10;;;;;;4978445;28;20467;-70
2022/04/23 17:25:35;;;;;;;5.73;5.33;;;16.00;92.20;;;;;;4989504;28;20948;-69
2022/04/23 17:28:04;;;;;;;5.43;5.00;;;16.00;92.60;;;;;;4990103;28;20491;-69
2022/04/23 17:30:31;;;;;;;5.20;4.87;;;16.00;92.60;;;;;;4988981;28;20491;-69
2022/04/23 17:32:57;;;;;;;5.70;5.30;;;15.90;92.80;;;;;;4990121;28;20467;-70
2022/04/23 17:35:25;;;;;;;5.93;5.53;;;15.90;92.60;;;;;;4990048;28;20463;-69
2022/04/23 17:38:54;;;;;;;5.80;5.40;;;15.80;92.50;;;;;;4990117;28;20486;-69
2022/04/23 17:40:39;;;;;;;5.50;5.20;;;15.80;92.80;;;;;;4989365;28;20917;-70
2022/04/23 17:43:07;;;;;;;5.47;5.07;;;15.70;92.50;;;;;;4990102;28;20474;-70
2022/04/23 17:45:34;;;;;;;6.57;6.00;;;15.60;92.70;;;;;;4989366;28;20553;-70
2022/04/23 17:48:01;;;;;;;5.97;5.57;;;15.60;92.70;;;;;;4990119;28;21099;-70
2022/04/23 17:50:28;;;;;;;5.97;5.67;;;15.50;92.50;;;;;;4989309;28;20466;-70
2022/04/23 17:52:54;;;;;;;6.53;6.03;;;15.50;92.70;;;;;;4990310;28;20819;-68